createdAt,value
2023-09-06T00:02:05.212Z,97589.25
2023-09-06T00:04:52.321Z,97584.59
2023-09-06T00:07:39.184Z,97585.94
2023-09-06T00:10:26.474Z,97584.81
2023-09-06T00:13:14.178Z,97581.81
2023-09-06T00:16:02.293Z,97588.59
2023-09-06T00:18:49.255Z,97592.66
2023-09-06T00:21:41.892Z,97590.75
2023-09-06T00:24:28.872Z,97591.00
2023-09-06T00:27:16.047Z,97593.69
2023-09-06T00:30:02.955Z,97596.09
2023-09-06T00:32:54.750Z,97600.16
2023-09-06T00:35:42.099Z,97600.13
2023-09-06T00:38:30.157Z,97604.44
2023-09-06T00:41:17.324Z,97606.84
2023-09-06T00:44:05.088Z,97602.78
2023-09-06T00:46:52.011Z,97604.38
2023-09-06T00:49:39.199Z,97596.75
2023-09-06T00:52:26.448Z,97596.44
2023-09-06T00:55:13.598Z,97594.25
2023-09-06T00:58:00.545Z,97594.75
2023-09-06T01:00:49.223Z,97587.13
2023-09-06T01:03:36.464Z,97587.59
2023-09-06T01:06:27.597Z,97583.78
2023-09-06T01:09:15.570Z,97591.38
2023-09-06T01:12:02.399Z,97588.38
2023-09-06T01:14:49.311Z,97585.34
2023-09-06T01:17:38.131Z,97582.34
2023-09-06T01:20:53.358Z,97589.91
2023-09-06T01:23:41.562Z,97586.88
2023-09-06T01:26:28.533Z,97581.16
2023-09-06T01:29:15.448Z,97580.59
2023-09-06T01:32:02.357Z,97575.94
2023-09-06T01:34:49.236Z,97577.53
2023-09-06T01:37:38.387Z,97579.94
2023-09-06T01:40:27.612Z,97573.16
2023-09-06T01:43:14.645Z,97569.31
2023-09-06T01:46:01.631Z,97570.63
2023-09-06T01:48:48.627Z,97573.03
2023-09-06T01:51:36.139Z,97562.69
2023-09-06T01:54:22.972Z,97567.00
2023-09-06T01:57:09.868Z,97568.59
2023-09-06T01:59:56.730Z,97560.97
2023-09-06T02:02:43.613Z,97556.31
2023-09-06T02:05:33.486Z,97554.31
2023-09-06T02:08:20.349Z,97555.91
2023-09-06T02:11:07.829Z,97548.25
2023-09-06T02:13:54.830Z,97552.34
2023-09-06T02:16:41.838Z,97552.84
2023-09-06T02:19:28.798Z,97556.88
2023-09-06T02:22:15.646Z,97559.03
2023-09-06T02:25:02.613Z,97556.00
2023-09-06T02:27:49.577Z,97555.13
2023-09-06T02:30:37.943Z,97559.41
2023-09-06T02:33:26.382Z,97549.56
2023-09-06T02:36:13.440Z,97556.56
2023-09-06T02:39:00.252Z,97556.81
2023-09-06T02:41:47.917Z,97560.84
2023-09-06T02:44:34.765Z,97556.50
2023-09-06T02:47:29.746Z,97557.81
2023-09-06T02:50:18.090Z,97561.31
2023-09-06T02:53:05.185Z,97563.94
2023-09-06T02:55:53.508Z,97562.78
2023-09-06T02:58:43.057Z,97559.22
2023-09-06T03:01:31.733Z,97558.06
2023-09-06T03:04:18.851Z,97559.59
2023-09-06T03:07:09.792Z,97560.13
2023-09-06T03:09:57.919Z,97560.59
2023-09-06T03:12:45.153Z,97558.06
2023-09-06T03:15:32.554Z,97562.34
2023-09-06T03:18:23.870Z,97575.56
2023-09-06T03:21:11.834Z,97573.63
2023-09-06T03:24:00.548Z,97568.69
2023-09-06T03:26:47.413Z,97575.41
2023-09-06T03:29:39.955Z,97569.41
2023-09-06T03:32:27.362Z,97571.78
2023-09-06T03:35:17.305Z,97572.81
2023-09-06T03:38:09.365Z,97574.59
2023-09-06T03:40:56.392Z,97558.84
2023-09-06T03:43:43.970Z,97568.53
2023-09-06T03:46:30.854Z,97573.06
2023-09-06T03:49:17.842Z,97571.66
2023-09-06T03:52:05.923Z,97571.91
2023-09-06T03:54:52.837Z,97572.41
2023-09-06T03:57:40.107Z,97581.00
2023-09-06T04:00:32.377Z,97575.81
2023-09-06T04:03:23.947Z,97569.47
2023-09-06T04:06:12.322Z,97571.03
2023-09-06T04:08:59.627Z,97573.41
2023-09-06T04:11:47.825Z,97571.44
2023-09-06T04:14:39.787Z,97571.59
2023-09-06T04:17:28.843Z,97583.38
2023-09-06T04:20:20.567Z,97581.41
2023-09-06T04:23:09.762Z,97579.75
2023-09-06T04:25:56.760Z,97585.41
2023-09-06T04:28:43.767Z,97588.59
2023-09-06T04:31:31.388Z,97599.88
2023-09-06T04:34:18.328Z,97593.09
2023-09-06T04:37:05.180Z,97595.00
2023-09-06T04:39:54.446Z,97596.50
2023-09-06T04:42:42.381Z,97598.66
2023-09-06T04:45:29.279Z,97606.63
2023-09-06T04:48:18.200Z,97594.66
2023-09-06T04:51:06.277Z,97597.84
2023-09-06T04:53:53.631Z,97600.56
2023-09-06T04:56:41.636Z,97602.69
2023-09-06T04:59:28.502Z,97600.47
2023-09-06T05:02:17.173Z,97590.72
2023-09-06T05:05:04.299Z,97594.72
2023-09-06T05:07:51.679Z,97603.28
2023-09-06T05:10:40.260Z,97593.47
2023-09-06T05:13:29.750Z,97596.63
2023-09-06T05:16:17.874Z,97593.34
2023-09-06T05:19:04.786Z,97596.75
2023-09-06T05:21:51.645Z,97595.09
2023-09-06T05:24:38.549Z,97598.97
2023-09-06T05:27:28.643Z,97600.03
2023-09-06T05:30:15.884Z,97591.81
2023-09-06T05:33:04.136Z,97601.97
2023-09-06T05:35:51.018Z,97592.56
2023-09-06T05:38:37.905Z,97591.41
2023-09-06T05:41:24.786Z,97584.69
2023-09-06T05:44:11.746Z,97601.53
2023-09-06T05:46:58.810Z,97602.97
2023-09-06T05:49:45.827Z,97600.69
2023-09-06T05:52:32.946Z,97600.81
2023-09-06T05:55:19.778Z,97595.56
2023-09-06T05:58:06.714Z,97600.88
2023-09-06T06:00:56.302Z,97596.16
2023-09-06T06:03:44.289Z,97601.22
2023-09-06T06:06:31.415Z,97600.91
2023-09-06T06:09:22.895Z,97599.72
2023-09-06T06:12:11.237Z,97601.06
2023-09-06T06:15:01.162Z,97603.75
2023-09-06T06:17:49.061Z,97604.56
2023-09-06T06:20:44.031Z,97608.31
2023-09-06T06:23:31.611Z,97609.38
2023-09-06T06:26:20.642Z,97610.19
2023-09-06T06:29:07.805Z,97612.44
2023-09-06T06:31:54.898Z,97621.94
2023-09-06T06:34:44.304Z,97624.19
2023-09-06T06:37:31.140Z,97621.47
2023-09-06T06:40:18.003Z,97621.47
2023-09-06T06:43:05.063Z,97625.81
2023-09-06T06:45:56.559Z,97630.16
2023-09-06T06:48:43.772Z,97631.56
2023-09-06T06:51:36.070Z,97637.31
2023-09-06T06:54:24.620Z,97633.31
2023-09-06T06:57:11.451Z,97640.44
2023-09-06T07:00:09.997Z,97635.63
2023-09-06T07:02:59.702Z,97632.44
2023-09-06T07:05:46.799Z,97630.31
2023-09-06T07:08:33.757Z,97633.94
2023-09-06T07:11:21.225Z,97636.19
2023-09-06T07:14:08.362Z,97634.63
2023-09-06T07:16:55.545Z,97636.03
2023-09-06T07:19:43.222Z,97638.56
2023-09-06T07:22:30.343Z,97636.72
2023-09-06T07:25:17.395Z,97635.72
2023-09-06T07:28:05.070Z,97639.00
2023-09-06T07:30:52.330Z,97642.66
2023-09-06T07:33:39.991Z,97647.56
2023-09-06T07:36:26.980Z,97646.84
2023-09-06T07:39:13.915Z,97644.72
2023-09-06T07:42:00.817Z,97643.41
2023-09-06T07:44:47.690Z,97639.72
2023-09-06T07:47:35.383Z,97635.44
2023-09-06T07:50:22.414Z,97645.06
2023-09-06T07:53:10.012Z,97634.31
2023-09-06T07:55:57.100Z,97640.66
2023-09-06T07:58:44.179Z,97639.91
2023-09-06T08:01:31.159Z,97637.03
2023-09-06T08:04:22.101Z,97642.25
2023-09-06T08:07:09.537Z,97642.59
2023-09-06T08:09:57.039Z,97637.28
2023-09-06T08:12:44.020Z,97645.22
2023-09-06T08:15:32.121Z,97639.56
2023-09-06T08:18:19.024Z,97638.34
2023-09-06T08:21:06.233Z,97643.25
2023-09-06T08:23:53.192Z,97648.19
2023-09-06T08:26:40.058Z,97642.84
2023-09-06T08:29:26.950Z,97642.91
2023-09-06T08:32:13.850Z,97642.97
2023-09-06T08:35:00.822Z,97645.50
2023-09-06T08:37:47.649Z,97647.22
2023-09-06T08:40:34.618Z,97650.25
2023-09-06T08:43:22.289Z,97658.44
2023-09-06T08:46:23.430Z,97659.59
2023-09-06T08:49:10.946Z,97652.84
2023-09-06T08:51:59.743Z,97659.13
2023-09-06T08:54:47.706Z,97652.97
2023-09-06T08:57:35.682Z,97659.25
2023-09-06T09:00:25.078Z,97667.50
2023-09-06T09:03:12.301Z,97660.25
2023-09-06T09:06:06.116Z,97668.19
2023-09-06T09:08:52.937Z,97665.53
2023-09-06T09:11:44.751Z,97667.50
2023-09-06T09:14:31.589Z,97665.41
2023-09-06T09:17:21.302Z,97664.38
2023-09-06T09:20:10.988Z,97669.88
2023-09-06T09:23:04.347Z,97659.88
2023-09-06T09:25:51.524Z,97659.13
2023-09-06T09:28:38.556Z,97655.94
2023-09-06T09:31:28.457Z,97655.16
2023-09-06T09:34:15.498Z,97650.84
2023-09-06T09:37:02.945Z,97653.34
2023-09-06T09:39:49.954Z,97663.47
2023-09-06T09:42:36.860Z,97654.56
2023-09-06T09:45:26.065Z,97660.03
2023-09-06T09:48:13.188Z,97660.91
2023-09-06T09:51:05.952Z,97663.66
2023-09-06T09:53:55.826Z,97660.72
2023-09-06T09:56:46.769Z,97659.97
2023-09-06T09:59:35.124Z,97655.13
2023-09-06T10:02:31.426Z,97650.28
2023-09-06T10:05:22.362Z,97651.16
2023-09-06T10:08:10.634Z,97654.69
2023-09-06T10:10:57.556Z,97658.56
2023-09-06T10:13:44.859Z,97656.69
2023-09-06T10:16:32.831Z,97657.81
2023-09-06T10:19:21.304Z,97658.66
2023-09-06T10:22:10.582Z,97663.84
2023-09-06T10:25:07.444Z,97653.81
2023-09-06T10:28:00.559Z,97647.56
2023-09-06T10:30:55.024Z,97644.63
2023-09-06T10:33:43.365Z,97644.38
2023-09-06T10:36:31.469Z,97641.66
2023-09-06T10:39:22.425Z,97636.00
2023-09-06T10:42:09.887Z,97638.47
2023-09-06T10:44:56.730Z,97635.75
2023-09-06T10:47:44.015Z,97633.06
2023-09-06T10:50:31.243Z,97629.28
2023-09-06T10:53:21.257Z,97629.84
2023-09-06T10:56:08.485Z,97629.88
2023-09-06T10:58:58.563Z,97631.53
2023-09-06T11:02:07.590Z,97638.31
2023-09-06T11:05:10.326Z,97627.97
2023-09-06T11:07:57.598Z,97627.97
2023-09-06T11:10:44.528Z,97624.75
2023-09-06T11:13:34.075Z,97624.47
2023-09-06T11:16:21.996Z,97621.50
2023-09-06T11:19:09.670Z,97620.09
2023-09-06T11:22:07.471Z,97609.13
2023-09-06T11:24:54.337Z,97609.06
2023-09-06T11:27:41.236Z,97617.69
2023-09-06T11:30:32.704Z,97617.94
2023-09-06T11:33:19.644Z,97609.47
2023-09-06T11:36:06.676Z,97609.22
2023-09-06T11:38:54.315Z,97615.22
2023-09-06T11:41:42.648Z,97594.72
2023-09-06T11:44:29.595Z,97591.16
2023-09-06T11:47:20.799Z,97595.56
2023-09-06T11:50:10.155Z,97596.38
2023-09-06T11:52:59.859Z,97591.75
2023-09-06T11:55:50.507Z,97591.53
2023-09-06T11:58:46.488Z,97585.03
2023-09-06T12:01:40.850Z,97578.75
2023-09-06T12:04:29.880Z,97572.50
2023-09-06T12:07:17.205Z,97575.44
2023-09-06T12:10:05.968Z,97564.50
2023-09-06T12:12:53.161Z,97574.56
2023-09-06T12:15:41.080Z,97567.50
2023-09-06T12:18:30.268Z,97567.44
2023-09-06T12:21:17.705Z,97572.31
2023-09-06T12:24:05.074Z,97562.00
2023-09-06T12:26:52.057Z,97565.59
2023-09-06T12:29:39.847Z,97559.56
2023-09-06T12:32:29.711Z,97553.00
2023-09-06T12:35:17.025Z,97551.63
2023-09-06T12:38:04.048Z,97543.72
2023-09-06T12:40:51.356Z,97548.09
2023-09-06T12:43:38.444Z,97541.28
2023-09-06T12:46:25.391Z,97543.44
2023-09-06T12:49:12.413Z,97540.72
2023-09-06T12:51:59.259Z,97537.13
2023-09-06T12:54:46.111Z,97531.97
2023-09-06T12:57:33.052Z,97535.75
2023-09-06T13:00:20.116Z,97531.41
2023-09-06T13:03:07.504Z,97529.19
2023-09-06T13:05:56.758Z,97525.34
2023-09-06T13:08:45.528Z,97531.81
2023-09-06T13:11:33.002Z,97524.44
2023-09-06T13:14:20.756Z,97526.09
2023-09-06T13:17:07.698Z,97517.38
2023-09-06T13:19:55.786Z,97522.56
2023-09-06T13:22:43.307Z,97519.84
2023-09-06T13:25:30.318Z,97520.34
2023-09-06T13:28:18.787Z,97523.13
2023-09-06T13:31:07.154Z,97516.03
2023-09-06T13:33:54.980Z,97520.41
2023-09-06T13:36:41.838Z,97511.28
2023-09-06T13:39:29.045Z,97503.88
2023-09-06T13:42:17.310Z,97501.41
2023-09-06T13:45:05.633Z,97499.72
2023-09-06T13:47:52.649Z,97503.88
2023-09-06T13:50:39.648Z,97496.25
2023-09-06T13:53:26.703Z,97492.13
2023-09-06T13:56:14.205Z,97479.78
2023-09-06T13:59:01.134Z,97488.22
2023-09-06T14:01:48.165Z,97489.53
2023-09-06T14:04:36.074Z,97482.13
2023-09-06T14:07:23.145Z,97478.56
2023-09-06T14:10:10.231Z,97477.69
2023-09-06T14:12:57.108Z,97471.94
2023-09-06T14:15:44.017Z,97476.59
2023-09-06T14:18:31.166Z,97474.16
2023-09-06T14:21:21.857Z,97479.84
2023-09-06T14:24:09.188Z,97471.34
2023-09-06T14:26:56.091Z,97464.34
2023-09-06T14:29:42.951Z,97464.34
2023-09-06T14:32:29.942Z,97461.53
2023-09-06T14:35:16.829Z,97466.44
2023-09-06T14:38:03.931Z,97466.44
2023-09-06T14:40:50.890Z,97470.03
2023-09-06T14:43:37.760Z,97464.03
2023-09-06T14:46:24.785Z,97462.66
2023-09-06T14:49:13.312Z,97468.06
2023-09-06T14:52:01.996Z,97466.38
2023-09-06T14:54:49.318Z,97472.81
2023-09-06T14:57:36.218Z,97473.38
2023-09-06T15:00:23.332Z,97470.66
2023-09-06T15:03:10.357Z,97467.97
2023-09-06T15:05:58.057Z,97466.34
2023-09-06T15:08:45.553Z,97476.41
2023-09-06T15:11:32.504Z,97461.59
2023-09-06T15:14:19.919Z,97466.22
2023-09-06T15:17:08.542Z,97468.97
2023-09-06T15:19:55.569Z,97463.56
2023-09-06T15:22:42.429Z,97478.56
2023-09-06T15:25:30.522Z,97472.06
2023-09-06T15:28:17.341Z,97465.75
2023-09-06T15:31:04.223Z,97471.41
2023-09-06T15:33:51.198Z,97466.34
2023-09-06T15:36:38.339Z,97471.19
2023-09-06T15:39:25.184Z,97452.47
2023-09-06T15:42:12.153Z,97460.91
2023-09-06T15:44:59.285Z,97464.19
2023-09-06T15:47:46.804Z,97463.59
2023-09-06T15:50:33.863Z,97462.50
2023-09-06T15:53:20.797Z,97453.47
2023-09-06T15:56:07.614Z,97453.47
2023-09-06T15:58:55.199Z,97459.47
2023-09-06T16:01:42.861Z,97460.56
2023-09-06T16:04:29.962Z,97465.50
2023-09-06T16:07:16.889Z,97460.13
2023-09-06T16:10:04.857Z,97467.88
2023-09-06T16:12:51.758Z,97468.44
2023-09-06T16:15:38.613Z,97463.03
2023-09-06T16:18:25.691Z,97468.47
2023-09-06T16:21:12.541Z,97461.94
2023-09-06T16:24:03.312Z,97461.47
2023-09-06T16:26:53.036Z,97460.09
2023-09-06T16:29:40.098Z,97463.63
2023-09-06T16:32:27.061Z,97464.19
2023-09-06T16:35:14.048Z,97458.75
2023-09-06T16:38:00.940Z,97457.66
2023-09-06T16:40:47.922Z,97463.94
2023-09-06T16:43:34.788Z,97462.59
2023-09-06T16:46:21.761Z,97459.28
2023-09-06T16:49:08.800Z,97464.19
2023-09-06T16:51:55.802Z,97468.28
2023-09-06T16:54:42.677Z,97463.47
2023-09-06T16:57:29.520Z,97468.44
2023-09-06T17:00:16.450Z,97464.38
2023-09-06T17:03:03.598Z,97470.69
2023-09-06T17:05:50.661Z,97469.66
2023-09-06T17:08:37.576Z,97468.59
2023-09-06T17:11:24.476Z,97464.81
2023-09-06T17:14:12.601Z,97470.53
2023-09-06T17:16:59.708Z,97468.16
2023-09-06T17:19:46.659Z,97467.34
2023-09-06T17:22:33.567Z,97472.47
2023-09-06T17:25:22.019Z,97472.13
2023-09-06T17:28:10.068Z,97469.59
2023-09-06T17:30:59.620Z,97472.53
2023-09-06T17:33:46.668Z,97470.28
2023-09-06T17:36:35.691Z,97475.69
2023-09-06T17:39:24.383Z,97461.97
2023-09-06T17:42:11.215Z,97481.06
2023-09-06T17:45:00.001Z,97484.84
2023-09-06T17:47:48.131Z,97469.78
2023-09-06T17:50:37.855Z,97482.13
2023-09-06T17:53:30.838Z,97487.59
2023-09-06T17:56:18.976Z,97487.50
2023-09-06T17:59:08.397Z,97496.75
2023-09-06T18:01:55.811Z,97485.56
2023-09-06T18:04:42.985Z,97486.38
2023-09-06T18:07:29.898Z,97492.66
2023-09-06T18:10:16.736Z,97488.78
2023-09-06T18:13:07.353Z,97489.63
2023-09-06T18:15:54.720Z,97484.16
2023-09-06T18:18:41.995Z,97478.69
2023-09-06T18:21:29.981Z,97480.31
2023-09-06T18:24:16.832Z,97486.59
2023-09-06T18:27:08.499Z,97492.06
2023-09-06T18:29:55.734Z,97485.78
2023-09-06T18:32:43.673Z,97483.88
2023-09-06T18:35:30.652Z,97494.00
2023-09-06T18:38:17.525Z,97487.72
2023-09-06T18:41:10.290Z,97486.91
2023-09-06T18:43:58.362Z,97486.06
2023-09-06T18:46:45.390Z,97485.56
2023-09-06T18:49:36.473Z,97490.22
2023-09-06T18:52:23.982Z,97492.41
2023-09-06T18:55:11.566Z,97494.31
2023-09-06T18:58:05.533Z,97496.53
2023-09-06T19:00:53.448Z,97492.47
2023-09-06T19:03:42.206Z,97505.59
2023-09-06T19:06:35.280Z,97502.38
2023-09-06T19:09:22.154Z,97501.00
2023-09-06T19:12:09.068Z,97506.47
2023-09-06T19:14:56.026Z,97504.00
2023-09-06T19:17:45.135Z,97507.06
2023-09-06T19:20:32.716Z,97505.19
2023-09-06T19:23:21.826Z,97512.00
2023-09-06T19:26:10.038Z,97516.44
2023-09-06T19:28:57.061Z,97523.28
2023-09-06T19:31:44.078Z,97515.38
2023-09-06T19:34:31.041Z,97517.28
2023-09-06T19:37:18.809Z,97522.22
2023-09-06T19:40:06.391Z,97515.94
2023-09-06T19:42:54.335Z,97522.53
2023-09-06T19:45:41.263Z,97520.88
2023-09-06T19:48:28.145Z,97522.28
2023-09-06T19:51:15.046Z,97513.03
2023-09-06T19:54:02.891Z,97516.03
2023-09-06T19:56:49.806Z,97516.31
2023-09-06T19:59:37.814Z,97522.06
2023-09-06T20:02:24.889Z,97523.75
2023-09-06T20:05:12.327Z,97518.56
2023-09-06T20:07:59.978Z,97525.16
2023-09-06T20:10:47.504Z,97521.06
2023-09-06T20:13:34.370Z,97525.16
2023-09-06T20:16:21.781Z,97537.19
2023-09-06T20:19:08.747Z,97529.56
2023-09-06T20:21:55.579Z,97522.75
2023-09-06T20:24:42.417Z,97525.25
2023-09-06T20:27:31.503Z,97525.53
2023-09-06T20:30:18.485Z,97526.91
2023-09-06T20:33:05.624Z,97519.03
2023-09-06T20:35:52.713Z,97523.13
2023-09-06T20:38:39.646Z,97524.81
2023-09-06T20:41:26.592Z,97521.78
2023-09-06T20:44:13.548Z,97526.72
2023-09-06T20:47:01.906Z,97518.81
2023-09-06T20:49:49.096Z,97524.56
2023-09-06T20:52:36.115Z,97517.75
2023-09-06T20:55:23.072Z,97522.97
2023-09-06T20:58:09.922Z,97525.16
2023-09-06T21:00:56.818Z,97522.16
2023-09-06T21:03:43.909Z,97520.00
2023-09-06T21:06:32.259Z,97525.75
2023-09-06T21:09:18.961Z,97520.03
2023-09-06T21:12:06.101Z,97524.13
2023-09-06T21:14:53.020Z,97518.97
2023-09-06T21:17:40.049Z,97514.38
2023-09-06T21:20:28.984Z,97513.81
2023-09-06T21:23:15.904Z,97516.31
2023-09-06T21:26:06.053Z,97522.06
2023-09-06T21:28:52.956Z,97526.16
2023-09-06T21:31:39.875Z,97527.50
2023-09-06T21:34:27.003Z,97525.34
2023-09-06T21:37:14.090Z,97527.56
2023-09-06T21:40:01.245Z,97525.69
2023-09-06T21:42:48.104Z,97527.03
2023-09-06T21:45:37.083Z,97527.59
2023-09-06T21:48:25.328Z,97525.41
2023-09-06T21:51:17.225Z,97532.50
2023-09-06T21:54:04.220Z,97535.78
2023-09-06T21:56:51.067Z,97539.06
2023-09-06T21:59:37.931Z,97540.97
2023-09-06T22:02:24.795Z,97543.19
2023-09-06T22:05:11.748Z,97537.47
2023-09-06T22:07:58.685Z,97545.09
2023-09-06T22:10:45.581Z,97542.94
2023-09-06T22:13:32.717Z,97549.78
2023-09-06T22:16:19.783Z,97553.84
2023-09-06T22:19:07.557Z,97554.97
2023-09-06T22:21:54.565Z,97550.06
2023-09-06T22:24:41.539Z,97552.53
2023-09-06T22:27:28.429Z,97557.69
2023-09-06T22:30:15.328Z,97552.81
2023-09-06T22:33:02.265Z,97554.16
2023-09-06T22:35:49.164Z,97553.63
2023-09-06T22:38:36.437Z,97558.53
2023-09-06T22:41:23.332Z,97557.44
2023-09-06T22:44:10.210Z,97557.75
2023-09-06T22:46:57.155Z,97559.09
2023-09-06T22:49:44.228Z,97559.66
2023-09-06T22:52:31.440Z,97569.47
2023-09-06T22:55:18.429Z,97565.38
2023-09-06T22:58:05.451Z,97573.25
2023-09-06T23:00:52.539Z,97567.28
2023-09-06T23:03:43.327Z,97566.19
2023-09-06T23:06:30.875Z,97567.78
2023-09-06T23:09:20.295Z,97564.00
2023-09-06T23:12:07.879Z,97569.97
2023-09-06T23:14:54.803Z,97563.19
2023-09-06T23:17:45.994Z,97567.25
2023-09-06T23:20:37.645Z,97561.25
2023-09-06T23:23:26.303Z,97558.56
2023-09-06T23:26:15.078Z,97559.66
2023-09-06T23:29:07.506Z,97550.41
2023-09-06T23:31:55.663Z,97552.84
2023-09-06T23:34:46.275Z,97551.47
2023-09-06T23:37:33.453Z,97550.09
2023-09-06T23:40:24.836Z,97557.19
2023-09-06T23:43:11.985Z,97555.00
2023-09-06T23:45:58.946Z,97543.81
2023-09-06T23:48:46.229Z,97548.75
2023-09-06T23:51:33.115Z,97545.75
2023-09-06T23:54:24.817Z,97542.75
2023-09-06T23:57:18.781Z,97538.91
